Stk-1004 — UBEM — position and weather

sailwx.info

Track history (hours):
 
Tides and Currents Weather Stations Pressure Air Temp Water Temp Dewpoint Dewpoint Depression Visibility Wind Speed Wind Dir Waves Ship Positions

Stk-1004

Last reported at 2015-Oct-16 22:04 UTC. Time now 2016-May-24 21:31 UTC.
Position N 59°49' E 030°36'.
Warning: this ship's position is months out of date.

Length 82 m; draft 3.4 m.

Type: Cargo ship. MMSI: 273439130.

Date/timePositionNaut miles runAvg speedWind from/ knotsBaromVisibWave heightAir tempDewpointWater temp
2015-Oct-16 22:04N 59°49' E 030°36'0 0.0
2015-Oct-16 17:23N 59°49' E 030°36'0 0.0
2015-Oct-16 16:33N 59°49' E 030°36'0 0.0
2015-Oct-16 12:18N 59°49' E 030°36'0 0.1
2015-Oct-16 11:33N 59°49' E 030°36'0 0.0
2015-Oct-16 10:32N 59°49' E 030°36'  
2015-Oct-10 00:23N 59°51' E 030°30'5 5.6
2015-Oct-09 23:33N 59°55' E 030°24'4 3.8
2015-Oct-09 22:32N 59°56' E 030°17'0 0.0
2015-Oct-09 21:33N 59°56' E 030°17'0 0.0
2015-Oct-09 20:33N 59°56' E 030°17'0 0.0
2015-Oct-09 19:33N 59°56' E 030°17'0 0.0
2015-Oct-09 18:33N 59°56' E 030°17'0 0.0
2015-Oct-09 17:32N 59°56' E 030°17'0 0.0
2015-Oct-09 16:32N 59°56' E 030°17'0 0.0
2015-Oct-09 15:33N 59°56' E 030°17'0 0.0
2015-Oct-09 14:31N 59°56' E 030°17'0 0.0
2015-Oct-09 13:33N 59°56' E 030°17'0 0.0
2015-Oct-09 12:19N 59°56' E 030°17'0 0.0
2015-Oct-09 11:32N 59°56' E 030°17'0 0.0
2015-Oct-09 10:27N 59°56' E 030°17'0 0.0
2015-Oct-09 09:28N 59°56' E 030°17'0 0.0
2015-Oct-09 08:25N 59°56' E 030°17'  
2015-Oct-07 03:32N 59°60' E 029°39'7 6.8
2015-Oct-07 02:34N 59°57' E 029°51'7 6.6
2015-Oct-07 01:33N 59°55' E 030°04'6 6.0
2015-Oct-07 00:34N 59°55' E 030°15'  
Track history (hours):
 
Tides and Currents Weather Stations Pressure Air Temp Water Temp Dewpoint Dewpoint Depression Visibility Wind Speed Wind Dir Waves Ship Positions

Stk-1004

Last reported at 2015-Oct-16 22:04 UTC. Time now 2016-May-24 21:31 UTC.
Position N 59°49' E 030°36'.
Warning: this ship's position is months out of date.

Length 82 m; draft 3.4 m.

Type: Cargo ship. MMSI: 273439130.

Date/timePositionNaut miles runAvg speedWind from/ knotsBaromVisibWave heightAir tempDewpointWater temp
2015-Oct-16 22:04N 59°49' E 030°36'0 0.0
2015-Oct-16 17:23N 59°49' E 030°36'0 0.0
2015-Oct-16 16:33N 59°49' E 030°36'0 0.0
2015-Oct-16 12:18N 59°49' E 030°36'0 0.1
2015-Oct-16 11:33N 59°49' E 030°36'0 0.0
2015-Oct-16 10:32N 59°49' E 030°36'  
2015-Oct-10 00:23N 59°51' E 030°30'5 5.6
2015-Oct-09 23:33N 59°55' E 030°24'4 3.8
2015-Oct-09 22:32N 59°56' E 030°17'0 0.0
2015-Oct-09 21:33N 59°56' E 030°17'0 0.0
2015-Oct-09 20:33N 59°56' E 030°17'0 0.0
2015-Oct-09 19:33N 59°56' E 030°17'0 0.0
2015-Oct-09 18:33N 59°56' E 030°17'0 0.0
2015-Oct-09 17:32N 59°56' E 030°17'0 0.0
2015-Oct-09 16:32N 59°56' E 030°17'0 0.0
2015-Oct-09 15:33N 59°56' E 030°17'0 0.0
2015-Oct-09 14:31N 59°56' E 030°17'0 0.0
2015-Oct-09 13:33N 59°56' E 030°17'0 0.0
2015-Oct-09 12:19N 59°56' E 030°17'0 0.0
2015-Oct-09 11:32N 59°56' E 030°17'0 0.0
2015-Oct-09 10:27N 59°56' E 030°17'0 0.0
2015-Oct-09 09:28N 59°56' E 030°17'0 0.0
2015-Oct-09 08:25N 59°56' E 030°17'  
2015-Oct-07 03:32N 59°60' E 029°39'7 6.8
2015-Oct-07 02:34N 59°57' E 029°51'7 6.6
2015-Oct-07 01:33N 59°55' E 030°04'6 6.0
2015-Oct-07 00:34N 59°55' E 030°15'  

Dump ship's entire track history